Time;durP1;ratioP1;P1;durP2;ratioP2;P2;SDS_P1;SDS_P2;PMS_P1;PMS_P2;Temp;Humidity;BMP_temperature;BMP_pressure;BME280_temperature;BME280_humidity;BME280_pressure;Samples;Min_cycle;Max_cycle;Signal;HPM_P1;HPM_P2
2023/04/27 00:02:22;;;;;;;1.50;1.20;;;7.40;98.20;;;;;;5048818;28;20486;-73
2023/04/27 00:04:49;;;;;;;1.50;1.40;;;7.30;98.20;;;;;;5063732;28;20481;-73
2023/04/27 00:07:17;;;;;;;1.50;1.20;;;7.20;98.20;;;;;;5042993;28;20485;-73
2023/04/27 00:09:43;;;;;;;1.50;1.20;;;7.20;98.20;;;;;;5062660;28;20457;-73
2023/04/27 00:12:10;;;;;;;1.50;1.23;;;7.10;98.20;;;;;;5051676;28;20485;-72
2023/04/27 00:14:37;;;;;;;1.50;1.20;;;7.10;98.20;;;;;;5062003;28;20462;-74
2023/04/27 00:17:04;;;;;;;1.50;1.30;;;7.00;98.20;;;;;;5055492;28;20480;-73
2023/04/27 00:19:30;;;;;;;1.50;1.30;;;7.00;98.20;;;;;;5074609;28;20461;-73
2023/04/27 00:21:58;;;;;;;1.50;1.30;;;7.00;98.20;;;;;;5046156;28;20833;-73
2023/04/27 00:24:27;;;;;;;1.50;1.30;;;6.90;98.20;;;;;;5060508;28;20876;-73
2023/04/27 00:26:53;;;;;;;1.50;1.27;;;6.90;98.20;;;;;;5046311;28;20510;-73
2023/04/27 00:29:20;;;;;;;1.50;1.40;;;6.90;98.20;;;;;;5061150;28;20840;-73
2023/04/27 00:31:47;;;;;;;1.50;1.20;;;6.90;98.20;;;;;;5052940;28;20564;-72
2023/04/27 00:34:13;;;;;;;1.50;1.30;;;6.90;98.20;;;;;;5058384;28;20496;-73
2023/04/27 00:36:40;;;;;;;1.50;1.23;;;6.90;98.20;;;;;;5048579;28;21053;-73
2023/04/27 00:39:07;;;;;;;1.50;1.30;;;6.90;98.20;;;;;;5057222;28;20950;-72
2023/04/27 00:41:38;;;;;;;1.50;1.30;;;6.90;98.20;;;;;;5049469;28;20469;-73
2023/04/27 00:44:05;;;;;;;1.50;1.40;;;6.90;98.20;;;;;;5061760;28;20489;-73
2023/04/27 00:46:33;;;;;;;1.50;1.30;;;6.90;98.20;;;;;;5055999;28;20479;-73
2023/04/27 00:49:01;;;;;;;1.50;1.30;;;6.90;98.20;;;;;;5057003;28;20461;-72
2023/04/27 00:51:29;;;;;;;1.50;1.20;;;6.90;98.20;;;;;;5048067;28;20505;-73
2023/04/27 00:53:58;;;;;;;1.50;1.27;;;6.90;98.20;;;;;;5056043;28;20477;-72
2023/04/27 00:56:24;;;;;;;1.50;1.23;;;6.90;98.20;;;;;;5051308;28;20477;-73
2023/04/27 00:58:52;;;;;;;1.50;1.33;;;6.90;98.20;;;;;;5059815;28;20472;-73
2023/04/27 01:01:20;;;;;;;1.50;1.20;;;6.90;98.20;;;;;;5049567;28;20912;-73
2023/04/27 01:03:47;;;;;;;1.50;1.23;;;6.90;98.20;;;;;;5059776;28;20908;-73
2023/04/27 01:06:14;;;;;;;1.50;1.20;;;6.90;98.20;;;;;;5053131;28;20985;-73
2023/04/27 01:08:41;;;;;;;1.50;1.30;;;6.80;98.20;;;;;;5058756;28;20473;-73
2023/04/27 01:11:07;;;;;;;1.50;1.30;;;6.80;98.20;;;;;;5047016;28;20943;-73
2023/04/27 01:13:34;;;;;;;1.50;1.20;;;6.80;98.20;;;;;;5059967;28;20486;-72
2023/04/27 01:16:02;;;;;;;1.50;1.20;;;6.80;98.20;;;;;;5055188;28;20451;-72
2023/04/27 01:18:29;;;;;;;1.50;1.27;;;6.80;98.20;;;;;;5060167;28;20469;-72
2023/04/27 01:20:56;;;;;;;1.50;1.20;;;6.80;98.20;;;;;;5049923;28;20461;-72
2023/04/27 01:23:24;;;;;;;1.50;1.40;;;6.80;98.20;;;;;;5059107;28;21364;-72
2023/04/27 01:25:50;;;;;;;1.50;1.30;;;6.80;98.20;;;;;;5050109;28;20478;-73
2023/04/27 01:28:17;;;;;;;1.50;1.40;;;6.80;98.20;;;;;;5057908;28;20545;-73
2023/04/27 01:30:44;;;;;;;1.50;1.20;;;6.80;98.20;;;;;;5059028;28;20458;-73
2023/04/27 01:33:11;;;;;;;1.50;1.30;;;6.80;98.20;;;;;;5043315;28;20482;-73
2023/04/27 01:35:37;;;;;;;1.50;1.30;;;6.80;98.20;;;;;;5058130;28;20476;-72
2023/04/27 01:38:04;;;;;;;1.50;1.20;;;6.80;98.20;;;;;;5051733;28;20482;-72
2023/04/27 01:40:32;;;;;;;1.50;1.20;;;6.70;98.20;;;;;;5062537;28;20458;-72
2023/04/27 01:42:59;;;;;;;1.50;1.20;;;6.70;98.20;;;;;;5053868;28;20572;-72
2023/04/27 01:45:26;;;;;;;1.50;1.30;;;6.70;98.20;;;;;;5062139;28;20478;-72
2023/04/27 01:47:53;;;;;;;1.50;1.30;;;6.60;98.20;;;;;;5045270;28;20928;-73
2023/04/27 01:50:20;;;;;;;1.50;1.30;;;6.60;98.20;;;;;;5056097;28;20494;-73
2023/04/27 01:52:47;;;;;;;1.50;1.20;;;6.60;98.20;;;;;;5050863;28;20480;-72
2023/04/27 01:55:14;;;;;;;1.50;1.30;;;6.60;98.20;;;;;;5064892;28;20458;-72
2023/04/27 01:57:42;;;;;;;1.50;1.20;;;6.50;98.20;;;;;;5049690;28;21160;-73
2023/04/27 02:00:09;;;;;;;1.50;1.30;;;6.40;98.20;;;;;;5055936;28;20453;-72
2023/04/27 02:02:36;;;;;;;1.50;1.30;;;6.40;98.20;;;;;;5049089;28;20542;-72
2023/04/27 02:05:03;;;;;;;1.50;1.30;;;6.30;98.20;;;;;;5057584;28;20509;-73
2023/04/27 02:07:30;;;;;;;1.50;1.30;;;6.30;98.20;;;;;;5046084;28;20482;-73
2023/04/27 02:09:57;;;;;;;1.50;1.30;;;6.20;98.20;;;;;;5058221;28;20457;-72
2023/04/27 02:12:24;;;;;;;1.50;1.30;;;6.20;98.20;;;;;;5042092;28;20486;-75
2023/04/27 02:14:52;;;;;;;1.50;1.30;;;6.10;98.20;;;;;;5057192;28;20453;-73
2023/04/27 02:17:19;;;;;;;1.53;1.30;;;6.00;98.20;;;;;;5045045;28;20489;-73
2023/04/27 02:19:46;;;;;;;1.50;1.30;;;6.00;98.20;;;;;;5053946;28;20453;-72
2023/04/27 02:22:13;;;;;;;1.50;1.30;;;5.90;98.20;;;;;;5054190;28;20540;-72
2023/04/27 02:24:39;;;;;;;1.50;1.30;;;5.80;98.20;;;;;;5065906;28;20485;-73
2023/04/27 02:27:06;;;;;;;1.50;1.30;;;5.80;98.20;;;;;;5042109;28;20550;-73
2023/04/27 02:29:37;;;;;;;1.50;1.30;;;5.70;98.20;;;;;;5058088;28;20473;-73
2023/04/27 02:32:05;;;;;;;7.80;7.40;;;5.70;98.20;;;;;;5047018;28;20572;-72
2023/04/27 02:34:32;;;;;;;1.60;1.43;;;5.70;98.20;;;;;;5062371;28;20474;-73
2023/04/27 02:36:59;;;;;;;1.50;1.30;;;5.60;98.20;;;;;;5048611;28;20505;-72
2023/04/27 02:39:25;;;;;;;1.50;1.40;;;5.60;98.20;;;;;;5054227;28;20950;-72
2023/04/27 02:41:52;;;;;;;1.50;1.30;;;5.50;98.20;;;;;;5055505;28;20564;-76
2023/04/27 02:44:19;;;;;;;1.50;1.40;;;5.50;98.20;;;;;;5066788;28;20481;-72
2023/04/27 02:46:46;;;;;;;1.50;1.30;;;5.50;98.20;;;;;;5038506;28;20481;-73
2023/04/27 02:49:15;;;;;;;1.50;1.30;;;5.40;98.20;;;;;;5056101;28;20461;-73
2023/04/27 02:51:42;;;;;;;1.50;1.30;;;5.40;98.20;;;;;;5053881;28;20477;-72
2023/04/27 02:54:09;;;;;;;1.60;1.47;;;5.40;98.20;;;;;;5064511;28;20542;-73
2023/04/27 02:56:36;;;;;;;1.60;1.40;;;5.30;98.20;;;;;;5044816;28;20499;-73
2023/04/27 02:59:02;;;;;;;1.50;1.30;;;5.30;98.20;;;;;;5055804;28;20465;-73
2023/04/27 03:01:30;;;;;;;1.50;1.40;;;5.30;98.20;;;;;;5052870;28;21152;-73
2023/04/27 03:03:56;;;;;;;1.60;1.40;;;5.30;98.20;;;;;;5061746;28;20486;-73
2023/04/27 03:06:24;;;;;;;1.50;1.30;;;5.30;98.20;;;;;;5047196;28;20838;-73
2023/04/27 03:08:51;;;;;;;1.53;1.30;;;5.20;98.20;;;;;;5054989;28;20909;-72
2023/04/27 03:11:18;;;;;;;1.57;1.40;;;5.20;98.20;;;;;;5054544;28;20478;-73
2023/04/27 03:13:45;;;;;;;1.53;1.30;;;5.20;98.20;;;;;;5064705;28;20573;-72
2023/04/27 03:16:11;;;;;;;1.53;1.40;;;5.20;98.20;;;;;;5048806;28;20562;-73
2023/04/27 03:18:38;;;;;;;1.60;1.50;;;5.20;98.20;;;;;;5059503;28;20457;-73
2023/04/27 03:21:07;;;;;;;1.60;1.40;;;5.20;98.20;;;;;;5054681;28;20454;-73
2023/04/27 03:23:35;;;;;;;1.60;1.43;;;5.20;98.20;;;;;;5062262;28;20561;-73
2023/04/27 03:26:05;;;;;;;1.50;1.30;;;5.20;98.20;;;;;;5053191;28;20493;-72
2023/04/27 03:28:32;;;;;;;1.53;1.40;;;5.20;98.20;;;;;;5047916;28;20464;-73
2023/04/27 03:30:59;;;;;;;1.50;1.30;;;5.20;98.20;;;;;;5053522;28;20544;-72
2023/04/27 03:33:27;;;;;;;1.60;1.40;;;5.20;98.20;;;;;;5046861;28;20581;-72
2023/04/27 03:35:57;;;;;;;1.50;1.30;;;5.20;98.20;;;;;;5055432;28;20473;-76
2023/04/27 03:38:23;;;;;;;1.50;1.30;;;5.20;98.20;;;;;;5047583;28;20472;-75
2023/04/27 03:40:52;;;;;;;1.50;1.30;;;5.20;98.20;;;;;;5055973;28;20461;-72
2023/04/27 03:43:19;;;;;;;1.50;1.30;;;5.10;98.20;;;;;;5048565;28;20473;-74
2023/04/27 03:45:46;;;;;;;1.50;1.30;;;5.10;98.20;;;;;;5062595;28;20488;-74
2023/04/27 03:48:14;;;;;;;1.53;1.33;;;5.10;98.20;;;;;;5047656;28;20469;-77
2023/04/27 03:50:41;;;;;;;1.60;1.40;;;5.10;98.20;;;;;;5068727;28;20465;-74
2023/04/27 03:53:07;;;;;;;1.50;1.40;;;5.10;98.20;;;;;;5040528;28;20492;-76
2023/04/27 03:55:37;;;;;;;1.57;1.40;;;5.10;98.20;;;;;;5072383;28;20449;-76
2023/04/27 03:58:06;;;;;;;1.57;1.30;;;5.00;98.20;;;;;;5055782;28;20561;-75
2023/04/27 04:00:33;;;;;;;1.53;1.30;;;5.00;98.20;;;;;;5069691;28;20453;-75
2023/04/27 04:03:00;;;;;;;1.50;1.30;;;5.00;98.20;;;;;;5052628;28;20501;-76
2023/04/27 04:05:26;;;;;;;1.50;1.30;;;5.00;98.20;;;;;;5065480;28;20509;-76
2023/04/27 04:07:53;;;;;;;1.53;1.30;;;5.00;98.20;;;;;;5053564;22;20508;-78
2023/04/27 04:10:20;;;;;;;1.50;1.30;;;5.00;98.20;;;;;;5010929;28;20459;-80
2023/04/27 04:12:47;;;;;;;1.50;1.40;;;5.00;98.20;;;;;;4969778;28;20912;-79
2023/04/27 04:15:15;;;;;;;1.50;1.30;;;5.00;98.20;;;;;;5013228;28;20463;-76
2023/04/27 04:17:42;;;;;;;1.50;1.30;;;4.90;98.20;;;;;;4999828;28;20511;-77
2023/04/27 04:20:09;;;;;;;1.50;1.30;;;4.90;98.20;;;;;;5004885;28;20544;-77
2023/04/27 04:22:36;;;;;;;1.63;1.53;;;4.90;98.20;;;;;;5004144;28;21208;-79
2023/04/27 04:25:03;;;;;;;1.53;1.30;;;4.90;98.20;;;;;;5008604;28;20459;-79
2023/04/27 04:27:31;;;;;;;1.53;1.30;;;4.90;98.20;;;;;;5007012;28;20485;-77
2023/04/27 04:29:59;;;;;;;1.57;1.30;;;4.90;98.20;;;;;;5004789;28;20480;-78
2023/04/27 04:32:30;;;;;;;1.60;1.50;;;4.90;98.20;;;;;;4983523;28;20643;-78
2023/04/27 04:34:57;;;;;;;1.60;1.50;;;4.90;98.20;;;;;;4994048;28;20467;-77
2023/04/27 04:37:24;;;;;;;1.57;1.33;;;4.90;98.20;;;;;;4979161;28;20538;-77
2023/04/27 04:39:51;;;;;;;1.60;1.50;;;4.80;98.20;;;;;;5001959;28;20884;-77
2023/04/27 04:42:19;;;;;;;1.60;1.40;;;4.80;98.20;;;;;;4991442;28;20571;-77
2023/04/27 04:44:45;;;;;;;1.50;1.30;;;4.80;98.20;;;;;;5004164;28;20471;-77
2023/04/27 04:47:12;;;;;;;1.50;1.30;;;4.90;98.20;;;;;;4987521;28;20480;-76
2023/04/27 04:49:40;;;;;;;1.60;1.43;;;4.90;98.20;;;;;;5000587;28;20572;-77
2023/04/27 04:52:07;;;;;;;1.53;1.30;;;4.90;98.20;;;;;;4990706;28;20481;-77
2023/04/27 04:54:34;;;;;;;1.53;1.30;;;4.90;98.20;;;;;;4998023;28;20456;-77
2023/04/27 04:57:02;;;;;;;1.50;1.30;;;4.90;98.20;;;;;;4986008;28;20489;-77
2023/04/27 04:59:29;;;;;;;1.50;1.30;;;4.90;98.20;;;;;;5000003;28;20853;-77
2023/04/27 05:01:55;;;;;;;1.60;1.40;;;4.90;98.20;;;;;;4991202;28;20492;-77
2023/04/27 05:04:22;;;;;;;1.50;1.30;;;5.00;98.20;;;;;;5001873;28;20866;-77
2023/04/27 05:06:51;;;;;;;1.53;1.30;;;5.00;98.20;;;;;;5000193;28;20487;-77
2023/04/27 05:09:18;;;;;;;1.50;1.30;;;5.00;98.20;;;;;;5009669;28;20679;-77
2023/04/27 05:11:45;;;;;;;1.50;1.40;;;5.00;98.20;;;;;;4991238;28;20478;-76
2023/04/27 05:14:12;;;;;;;1.50;1.37;;;5.10;98.20;;;;;;4996823;28;20900;-77
2023/04/27 05:16:39;;;;;;;1.53;1.30;;;5.10;98.20;;;;;;4984956;28;20493;-79
2023/04/27 05:19:07;;;;;;;1.50;1.30;;;5.20;98.20;;;;;;4998011;28;20541;-78
2023/04/27 05:21:34;;;;;;;1.50;1.30;;;5.30;98.20;;;;;;4987310;28;20990;-78
2023/04/27 05:24:02;;;;;;;1.50;1.30;;;5.40;98.20;;;;;;4997927;28;20460;-77
2023/04/27 05:26:29;;;;;;;1.50;1.40;;;5.50;98.20;;;;;;4988237;28;20515;-78
2023/04/27 05:28:56;;;;;;;1.50;1.30;;;5.70;98.20;;;;;;4998511;28;20484;-78
2023/04/27 05:31:23;;;;;;;1.53;1.40;;;5.80;98.20;;;;;;4987902;28;20856;-78
2023/04/27 05:33:49;;;;;;;1.50;1.40;;;6.10;98.20;;;;;;4993820;28;20471;-77
2023/04/27 05:36:16;;;;;;;1.50;1.30;;;6.30;98.20;;;;;;4993262;28;20489;-77
2023/04/27 05:38:43;;;;;;;1.50;1.20;;;6.50;98.20;;;;;;5000624;28;20491;-77
2023/04/27 05:41:11;;;;;;;1.60;1.40;;;6.80;98.20;;;;;;4992528;28;20492;-76
2023/04/27 05:43:38;;;;;;;1.50;1.30;;;7.00;98.20;;;;;;4996103;28;20460;-77
2023/04/27 05:46:05;;;;;;;1.50;1.27;;;7.20;98.20;;;;;;4992959;28;20540;-78
2023/04/27 05:48:32;;;;;;;1.50;1.40;;;7.40;98.20;;;;;;4995158;28;20480;-77
2023/04/27 05:51:02;;;;;;;1.50;1.20;;;7.60;98.20;;;;;;4991958;28;20465;-78
2023/04/27 05:53:29;;;;;;;1.50;1.30;;;7.80;98.20;;;;;;4992003;28;20460;-79
2023/04/27 05:55:58;;;;;;;1.57;1.20;;;8.00;98.20;;;;;;4991845;28;20472;-78
2023/04/27 05:58:26;;;;;;;1.50;1.30;;;8.00;98.20;;;;;;4990735;28;20878;-78
2023/04/27 06:00:53;;;;;;;1.50;1.20;;;8.30;98.20;;;;;;4993181;28;20460;-79
2023/04/27 06:03:20;;;;;;;1.57;1.30;;;8.50;98.20;;;;;;4989106;28;20847;-81
2023/04/27 06:05:47;;;;;;;1.50;1.20;;;8.60;98.20;;;;;;5003786;28;20542;-83
2023/04/27 06:08:14;;;;;;;1.87;1.77;;;8.70;98.20;;;;;;5019246;28;20555;-80
2023/04/27 06:10:41;;;;;;;1.50;1.30;;;8.80;98.20;;;;;;5001913;28;20460;-80
2023/04/27 06:13:07;;;;;;;1.50;1.30;;;9.00;98.20;;;;;;4980840;28;20480;-80
2023/04/27 06:15:35;;;;;;;1.50;1.20;;;9.10;98.10;;;;;;5005280;28;20460;-79
2023/04/27 06:18:02;;;;;;;1.50;1.10;;;9.30;98.20;;;;;;4981568;28;20500;-79
2023/04/27 06:20:29;;;;;;;1.50;1.20;;;9.50;98.00;;;;;;5002715;28;20460;-80
2023/04/27 06:22:57;;;;;;;1.50;1.20;;;9.70;96.90;;;;;;5011001;28;20853;-80
2023/04/27 06:25:24;;;;;;;1.50;1.10;;;9.80;97.20;;;;;;5004946;28;21027;-80
2023/04/27 06:27:51;;;;;;;1.50;1.10;;;9.90;96.30;;;;;;4991739;28;21174;-80
2023/04/27 06:30:18;;;;;;;1.97;1.77;;;9.90;95.40;;;;;;5003777;28;20467;-80
2023/04/27 06:32:46;;;;;;;1.50;1.10;;;9.90;96.10;;;;;;5006494;28;20490;-81
2023/04/27 06:35:13;;;;;;;1.50;1.20;;;9.90;95.40;;;;;;5005107;28;20465;-81
2023/04/27 06:37:40;;;;;;;1.50;1.30;;;10.10;96.20;;;;;;4982756;28;20492;-80
2023/04/27 06:40:08;;;;;;;1.50;1.10;;;10.30;95.20;;;;;;5005116;28;20461;-80
2023/04/27 06:42:35;;;;;;;1.50;1.10;;;10.50;93.80;;;;;;5007433;28;20548;-80
2023/04/27 06:45:02;;;;;;;1.50;1.10;;;10.50;93.20;;;;;;5007902;28;21016;-80
2023/04/27 06:47:29;;;;;;;1.50;1.00;;;10.50;92.70;;;;;;4986855;28;20487;-81
2023/04/27 06:49:58;;;;;;;1.50;1.10;;;10.40;92.40;;;;;;5002949;28;20595;-81
2023/04/27 06:52:24;;;;;;;1.50;1.10;;;10.50;91.90;;;;;;4989367;28;21004;-80
2023/04/27 06:54:51;;;;;;;1.50;1.00;;;10.70;91.30;;;;;;4999662;28;21301;-81
2023/04/27 06:57:18;;;;;;;1.43;1.00;;;10.70;91.20;;;;;;5007860;28;20510;-82
2023/04/27 06:59:45;;;;;;;1.50;1.10;;;10.70;91.40;;;;;;5008462;28;21232;-80
2023/04/27 07:02:12;;;;;;;1.50;1.10;;;11.00;91.10;;;;;;4993123;28;20488;-81
2023/04/27 07:04:39;;;;;;;1.47;1.07;;;11.30;90.00;;;;;;5003965;28;20488;-81
2023/04/27 07:07:08;;;;;;;1.50;1.10;;;11.30;89.00;;;;;;5005876;28;20488;-80
2023/04/27 07:09:34;;;;;;;1.50;1.10;;;11.30;88.50;;;;;;5009828;28;20492;-81
2023/04/27 07:12:01;;;;;;;1.50;1.10;;;11.50;89.40;;;;;;5000665;28;20906;-81
2023/04/27 07:14:29;;;;;;;1.43;1.00;;;11.50;88.60;;;;;;5011145;28;20832;-81
2023/04/27 07:16:56;;;;;;;1.50;1.00;;;11.60;88.30;;;;;;5004640;28;20475;-82
2023/04/27 07:19:23;;;;;;;1.50;1.00;;;11.80;87.90;;;;;;5007735;28;20497;-82
2023/04/27 07:21:50;;;;;;;1.50;1.00;;;11.90;87.00;;;;;;4990029;28;21208;-80
2023/04/27 07:24:19;;;;;;;1.93;1.83;;;12.20;87.00;;;;;;4995137;28;20523;-80
2023/04/27 07:26:45;;;;;;;1.50;1.00;;;12.40;85.80;;;;;;4987671;28;20481;-81
2023/04/27 07:29:13;;;;;;;1.50;1.00;;;12.70;85.10;;;;;;4997577;28;20487;-81
2023/04/27 07:31:40;;;;;;;1.50;1.00;;;12.90;82.70;;;;;;4994835;28;20483;-80
2023/04/27 07:34:07;;;;;;;1.50;0.97;;;13.00;82.60;;;;;;5004325;28;20476;-80
2023/04/27 07:36:34;;;;;;;1.50;0.90;;;13.30;81.80;;;;;;4993324;28;20489;-80
2023/04/27 07:39:01;;;;;;;1.50;1.00;;;13.50;81.90;;;;;;4999995;28;20481;-81
2023/04/27 07:41:29;;;;;;;1.50;1.10;;;13.50;80.40;;;;;;4996115;28;20862;-80
2023/04/27 07:43:56;;;;;;;1.50;0.90;;;13.50;81.20;;;;;;4996350;28;20472;-81
2023/04/27 07:46:25;;;;;;;1.50;1.00;;;13.70;81.70;;;;;;4994802;28;20527;-80
2023/04/27 07:48:54;;;;;;;1.40;0.90;;;13.80;81.20;;;;;;4996705;28;21143;-78
2023/04/27 07:51:20;;;;;;;1.47;1.00;;;14.00;79.20;;;;;;4990460;28;20489;-80
2023/04/27 07:53:47;;;;;;;1.50;1.00;;;13.90;79.70;;;;;;4988864;28;20879;-78
2023/04/27 07:56:14;;;;;;;1.50;1.00;;;14.00;80.40;;;;;;4998708;28;20537;-80
2023/04/27 07:58:43;;;;;;;1.50;0.90;;;14.10;80.10;;;;;;5013324;28;20989;-79
2023/04/27 08:01:10;;;;;;;1.50;1.00;;;14.20;79.00;;;;;;4995071;28;20492;-80
2023/04/27 08:03:36;;;;;;;1.50;0.90;;;14.30;77.80;;;;;;5001840;28;21007;-80
2023/04/27 08:06:03;;;;;;;1.50;1.00;;;14.20;78.30;;;;;;4996140;28;20976;-79
2023/04/27 08:08:30;;;;;;;1.50;1.00;;;14.30;77.00;;;;;;5015264;28;20496;-80
2023/04/27 08:10:57;;;;;;;2.20;2.00;;;14.50;78.50;;;;;;4997071;28;20460;-80
2023/04/27 08:13:24;;;;;;;1.50;1.00;;;14.80;77.20;;;;;;4993309;28;20543;-81
2023/04/27 08:15:57;;;;;;;1.50;0.90;;;15.00;75.80;;;;;;4996900;28;20464;-80
2023/04/27 08:18:24;;;;;;;1.47;0.90;;;15.20;75.10;;;;;;4994740;28;20545;-80
2023/04/27 08:20:51;;;;;;;1.50;0.90;;;15.30;76.40;;;;;;4995667;28;20456;-80
2023/04/27 08:23:17;;;;;;;1.80;1.53;;;15.40;75.70;;;;;;4997851;28;20498;-81
2023/04/27 08:25:44;;;;;;;1.43;0.90;;;15.30;74.80;;;;;;5004392;28;20975;-80
2023/04/27 08:28:11;;;;;;;1.47;0.90;;;15.50;75.00;;;;;;4994994;28;20568;-81
2023/04/27 08:30:38;;;;;;;1.50;1.10;;;15.50;73.40;;;;;;5005462;28;20460;-80
2023/04/27 08:33:06;;;;;;;1.43;0.90;;;15.40;73.30;;;;;;4982201;28;20520;-81
2023/04/27 08:35:33;;;;;;;1.50;0.90;;;15.40;72.40;;;;;;5005262;28;20465;-79
2023/04/27 08:38:00;;;;;;;1.43;0.90;;;15.50;72.10;;;;;;5007334;28;20487;-79
2023/04/27 08:40:27;;;;;;;1.40;0.90;;;15.70;74.20;;;;;;5003160;28;20564;-79
2023/04/27 08:42:55;;;;;;;1.43;0.90;;;15.70;73.60;;;;;;4987148;28;20480;-80
2023/04/27 08:45:23;;;;;;;1.60;1.30;;;15.70;74.20;;;;;;5005832;28;20878;-80
2023/04/27 08:47:50;;;;;;;1.43;0.90;;;15.80;74.00;;;;;;4990737;28;20479;-80
2023/04/27 08:50:20;;;;;;;1.43;0.90;;;15.80;72.60;;;;;;5005377;28;20465;-80
2023/04/27 08:52:47;;;;;;;1.47;0.93;;;15.80;71.90;;;;;;4982466;28;20481;-79
2023/04/27 08:55:14;;;;;;;1.47;1.00;;;16.00;71.20;;;;;;5004475;28;20468;-80
2023/04/27 08:57:41;;;;;;;1.50;1.00;;;16.20;71.00;;;;;;4982776;28;20560;-80
2023/04/27 09:00:12;;;;;;;1.50;1.00;;;16.30;70.60;;;;;;5003827;28;20531;-82
2023/04/27 09:02:45;;;;;;;1.50;0.90;;;16.50;71.40;;;;;;4988337;28;20484;-83
2023/04/27 09:05:17;;;;;;;1.47;0.90;;;16.50;70.50;;;;;;5005455;28;20907;-82
2023/04/27 09:07:56;;;;;;;1.43;0.90;;;16.60;69.90;;;;;;5015033;28;20478;-80
2023/04/27 09:10:23;;;;;;;1.47;0.90;;;16.60;69.40;;;;;;5004357;28;20480;-82
2023/04/27 09:12:56;;;;;;;1.50;1.00;;;16.70;70.20;;;;;;4985901;28;20481;-81
2023/04/27 09:15:23;;;;;;;1.50;1.10;;;16.80;69.90;;;;;;5001894;28;20465;-82
2023/04/27 09:17:54;;;;;;;1.47;0.90;;;16.90;70.40;;;;;;5008082;28;21003;-80
2023/04/27 09:20:22;;;;;;;1.50;0.90;;;16.90;69.70;;;;;;5004848;28;20556;-80
2023/04/27 09:22:53;;;;;;;1.50;0.90;;;16.90;69.20;;;;;;4977056;28;20845;-79
2023/04/27 09:25:27;;;;;;;1.50;1.00;;;17.10;68.90;;;;;;5005401;28;20469;-79
2023/04/27 09:27:54;;;;;;;1.43;0.90;;;17.30;69.80;;;;;;4981456;28;20563;-81
2023/04/27 09:30:22;;;;;;;1.47;0.90;;;17.40;67.90;;;;;;4996968;28;20517;-82
2023/04/27 09:32:53;;;;;;;1.43;0.90;;;17.10;66.20;;;;;;4977670;28;20481;-79
2023/04/27 09:35:26;;;;;;;1.50;1.00;;;16.70;66.80;;;;;;5004519;28;20503;-82
2023/04/27 09:37:53;;;;;;;1.60;1.40;;;16.60;67.90;;;;;;4991912;28;20487;-81
2023/04/27 09:40:23;;;;;;;1.43;0.90;;;16.70;68.10;;;;;;5007025;28;20464;-80
2023/04/27 09:42:51;;;;;;;1.47;0.90;;;16.80;68.60;;;;;;5001969;28;21078;-82
2023/04/27 09:45:18;;;;;;;1.50;1.00;;;16.90;68.60;;;;;;5002122;28;20464;-81
2023/04/27 09:47:45;;;;;;;1.47;0.90;;;17.00;69.50;;;;;;4981424;28;20480;-79
2023/04/27 09:50:13;;;;;;;1.47;0.90;;;17.20;69.50;;;;;;4999656;28;20464;-81
2023/04/27 09:52:41;;;;;;;1.47;0.90;;;17.30;66.30;;;;;;4983753;28;20527;-81
2023/04/27 09:55:11;;;;;;;1.43;0.90;;;17.20;65.40;;;;;;5002600;28;20468;-81
2023/04/27 09:57:45;;;;;;;1.50;0.90;;;17.30;66.00;;;;;;4982831;28;20481;-81
2023/04/27 10:00:29;;;;;;;1.50;0.90;;;17.30;65.40;;;;;;5004880;28;20460;-81
2023/04/27 10:03:08;;;;;;;1.50;0.90;;;17.60;66.90;;;;;;4980493;28;20506;-81
2023/04/27 10:05:50;;;;;;;1.50;0.90;;;17.90;65.70;;;;;;5004636;28;20456;-81
2023/04/27 10:08:21;;;;;;;1.47;0.90;;;17.90;66.00;;;;;;4992792;28;20492;-80
2023/04/27 10:10:50;;;;;;;1.43;0.90;;;18.10;66.40;;;;;;4993451;28;20964;-81
2023/04/27 10:13:22;;;;;;;1.43;0.90;;;18.20;65.60;;;;;;4999910;28;20472;-80
2023/04/27 10:15:50;;;;;;;1.43;0.90;;;18.10;63.00;;;;;;5003442;28;20464;-81
2023/04/27 10:18:26;;;;;;;1.43;0.90;;;17.70;63.40;;;;;;5002672;28;21027;-81
2023/04/27 10:20:53;;;;;;;1.47;0.90;;;17.70;64.20;;;;;;4995673;28;20981;-79
2023/04/27 10:23:26;;;;;;;1.43;0.90;;;17.80;65.00;;;;;;5019372;28;20468;-81
2023/04/27 10:25:54;;;;;;;1.47;0.90;;;18.10;64.70;;;;;;4993392;28;20486;-81
2023/04/27 10:28:21;;;;;;;1.40;0.90;;;18.20;64.90;;;;;;4994264;28;20519;-81
2023/04/27 10:30:48;;;;;;;1.43;0.90;;;18.20;63.40;;;;;;4995222;28;20488;-81
2023/04/27 10:33:21;;;;;;;1.47;0.90;;;18.30;66.10;;;;;;4989736;28;20490;-80
2023/04/27 10:35:55;;;;;;;1.50;0.90;;;18.60;64.80;;;;;;4992933;28;20463;-80
2023/04/27 10:38:32;;;;;;;1.47;0.90;;;19.00;65.70;;;;;;4990692;28;20552;-80
2023/04/27 10:41:01;;;;;;;1.43;0.90;;;19.10;64.00;;;;;;4992884;28;20500;-81
2023/04/27 10:43:29;;;;;;;1.50;0.90;;;19.20;62.60;;;;;;4996762;28;20490;-80
2023/04/27 10:46:07;;;;;;;1.60;1.50;;;19.00;63.20;;;;;;4993301;28;20460;-80
2023/04/27 10:48:34;;;;;;;1.43;0.90;;;19.10;64.80;;;;;;4993900;28;20498;-81
2023/04/27 10:51:02;;;;;;;1.47;0.90;;;19.20;65.10;;;;;;4991884;28;20501;-79
2023/04/27 10:53:35;;;;;;;1.43;0.90;;;19.60;64.90;;;;;;4992015;28;20461;-80
2023/04/27 10:56:02;;;;;;;1.40;0.90;;;19.80;62.30;;;;;;5003270;28;20517;-81
2023/04/27 10:58:29;;;;;;;1.50;0.90;;;19.70;61.60;;;;;;5016253;28;20507;-82
2023/04/27 11:00:56;;;;;;;1.47;0.90;;;19.80;62.50;;;;;;4997017;28;20467;-78
2023/04/27 11:03:23;;;;;;;1.40;0.90;;;19.80;61.60;;;;;;5005114;28;20479;-82
2023/04/27 11:06:00;;;;;;;1.43;0.90;;;19.80;61.80;;;;;;4997095;28;21071;-81
2023/04/27 11:08:27;;;;;;;1.50;0.90;;;19.60;62.60;;;;;;4994385;28;20510;-80
2023/04/27 11:10:55;;;;;;;1.47;0.90;;;19.80;61.70;;;;;;4996396;28;20550;-80
2023/04/27 11:13:38;;;;;;;1.50;0.87;;;19.90;60.30;;;;;;4995296;28;20544;-82
2023/04/27 11:16:05;;;;;;;1.43;0.90;;;20.10;61.50;;;;;;4996518;28;20448;-79
2023/04/27 11:18:33;;;;;;;1.47;0.90;;;19.90;61.70;;;;;;4994136;28;20490;-79
2023/04/27 11:21:09;;;;;;;1.40;0.83;;;20.00;63.80;;;;;;5000904;28;20449;-80
2023/04/27 11:23:37;;;;;;;1.43;0.90;;;20.10;62.70;;;;;;5024313;28;20454;-80
2023/04/27 11:26:11;;;;;;;1.43;0.90;;;20.30;62.10;;;;;;4988067;28;20472;-80
2023/04/27 11:28:38;;;;;;;1.50;0.90;;;20.20;61.00;;;;;;4997000;28;21051;-80
2023/04/27 11:31:06;;;;;;;1.47;0.90;;;20.20;61.10;;;;;;4993693;28;20466;-79
2023/04/27 11:33:33;;;;;;;2.37;1.93;;;20.10;59.90;;;;;;4985829;28;20946;-79
2023/04/27 11:36:01;;;;;;;1.40;0.90;;;20.10;61.20;;;;;;4982085;28;20469;-79
2023/04/27 11:38:33;;;;;;;1.43;0.90;;;20.10;62.00;;;;;;4992343;28;20581;-78
2023/04/27 11:41:04;;;;;;;1.47;0.90;;;20.20;62.00;;;;;;4987976;28;20475;-80
2023/04/27 11:43:33;;;;;;;1.43;0.83;;;20.30;62.80;;;;;;4988857;28;20473;-80
2023/04/27 11:46:03;;;;;;;1.47;0.90;;;20.00;61.00;;;;;;4989871;28;20475;-80
2023/04/27 11:48:30;;;;;;;1.43;0.90;;;19.70;61.90;;;;;;4994285;28;20488;-83
2023/04/27 11:50:59;;;;;;;1.47;0.90;;;19.60;62.30;;;;;;4992920;28;20555;-80
2023/04/27 11:53:31;;;;;;;1.43;0.90;;;19.80;62.80;;;;;;5015863;27;20521;-81
2023/04/27 11:56:00;;;;;;;1.43;0.90;;;20.00;62.60;;;;;;4991816;28;20460;-81
2023/04/27 11:58:28;;;;;;;1.43;0.90;;;20.20;63.30;;;;;;4990995;28;20480;-79
2023/04/27 12:00:57;;;;;;;1.47;0.90;;;20.30;62.40;;;;;;4993367;28;20574;-79
2023/04/27 12:03:25;;;;;;;1.40;0.90;;;20.10;61.20;;;;;;5003123;28;20469;-81
2023/04/27 12:05:52;;;;;;;1.43;0.90;;;20.10;62.40;;;;;;4993284;28;20468;-79
2023/04/27 12:08:19;;;;;;;1.40;0.90;;;20.00;62.70;;;;;;4993948;28;20797;-80
2023/04/27 12:10:46;;;;;;;1.43;0.90;;;20.00;63.80;;;;;;5003871;28;20972;-80
2023/04/27 12:13:14;;;;;;;1.47;0.80;;;19.90;61.60;;;;;;4986925;28;20961;-80
2023/04/27 12:15:41;;;;;;;1.50;1.10;;;20.00;62.60;;;;;;5001521;28;20525;-79
2023/04/27 12:18:09;;;;;;;1.50;0.90;;;20.00;64.90;;;;;;5004344;28;20477;-80
2023/04/27 12:20:37;;;;;;;1.43;0.90;;;20.20;64.60;;;;;;5003114;28;20508;-81
2023/04/27 12:23:04;;;;;;;1.43;0.90;;;20.20;62.30;;;;;;4988911;28;20546;-81
2023/04/27 12:25:30;;;;;;;1.43;0.80;;;20.10;62.40;;;;;;5001680;28;20511;-79
2023/04/27 12:27:57;;;;;;;1.50;0.90;;;20.00;63.30;;;;;;4983688;28;20906;-79
2023/04/27 12:30:26;;;;;;;1.50;1.07;;;20.20;61.60;;;;;;4995741;28;20474;-79
2023/04/27 12:32:53;;;;;;;1.50;1.00;;;20.20;62.50;;;;;;4984246;28;20561;-80
2023/04/27 12:35:22;;;;;;;1.60;1.47;;;20.30;62.30;;;;;;5003934;28;20517;-81
2023/04/27 12:37:49;;;;;;;1.40;0.80;;;20.40;61.20;;;;;;4981431;28;20510;-80
2023/04/27 12:40:16;;;;;;;1.40;0.90;;;20.20;60.30;;;;;;5002253;28;20475;-80
2023/04/27 12:42:43;;;;;;;1.47;0.90;;;20.00;62.20;;;;;;4979483;28;20879;-79
2023/04/27 12:45:10;;;;;;;1.43;0.90;;;20.10;63.40;;;;;;5004018;28;20475;-79
2023/04/27 12:47:37;;;;;;;1.50;0.90;;;20.30;62.70;;;;;;4981624;28;20489;-80
2023/04/27 12:50:04;;;;;;;1.40;0.90;;;20.30;60.70;;;;;;4998339;28;20533;-79
2023/04/27 12:52:33;;;;;;;1.47;0.83;;;20.80;60.60;;;;;;4985959;28;20519;-79
2023/04/27 12:55:00;;;;;;;1.47;0.90;;;20.90;61.20;;;;;;4998870;28;20825;-79
2023/04/27 12:57:26;;;;;;;1.47;0.80;;;21.00;58.50;;;;;;4983337;28;20930;-80